createdAt,value
2017-11-15T00:00:38.445Z,96695
2017-11-15T00:03:09.109Z,96691
2017-11-15T00:05:37.892Z,96690
2017-11-15T00:08:06.608Z,96682
2017-11-15T00:10:35.261Z,96687
2017-11-15T00:13:10.049Z,96682
2017-11-15T00:15:38.750Z,96681
2017-11-15T00:18:07.432Z,96685
2017-11-15T00:20:42.412Z,96685
2017-11-15T00:23:11.869Z,96689
2017-11-15T00:25:40.557Z,96688
2017-11-15T00:28:09.293Z,96689
2017-11-15T00:30:37.976Z,96693
2017-11-15T00:33:07.428Z,96690
2017-11-15T00:35:36.863Z,96694
2017-11-15T00:38:05.552Z,96690
2017-11-15T00:40:35.097Z,96678
2017-11-15T00:43:03.778Z,96677
2017-11-15T00:45:33.268Z,96677
2017-11-15T00:48:02.856Z,96672
2017-11-15T00:50:32.327Z,96682
2017-11-15T00:53:01.948Z,96674
2017-11-15T00:55:30.629Z,96672
2017-11-15T00:57:59.333Z,96668
2017-11-15T01:00:28.009Z,96678
2017-11-15T01:02:58.384Z,96666
2017-11-15T01:05:27.078Z,96671
2017-11-15T01:07:56.606Z,96667
2017-11-15T01:10:25.296Z,96668
2017-11-15T01:12:53.979Z,96656
2017-11-15T01:15:28.991Z,96670
2017-11-15T01:17:57.689Z,96675
2017-11-15T01:20:26.377Z,96673
2017-11-15T01:22:55.909Z,96670
2017-11-15T01:25:24.604Z,96680
2017-11-15T01:27:53.327Z,96668
2017-11-15T01:30:22.024Z,96671
2017-11-15T01:32:50.708Z,96672
2017-11-15T01:35:19.386Z,96669
2017-11-15T01:37:48.092Z,96672
2017-11-15T01:40:16.780Z,96679
2017-11-15T01:42:52.084Z,96676
2017-11-15T01:45:20.759Z,96676
2017-11-15T01:47:50.204Z,96681
2017-11-15T01:50:18.907Z,96676
2017-11-15T01:52:47.591Z,96670
2017-11-15T01:55:16.284Z,96663
2017-11-15T01:57:44.969Z,96660
2017-11-15T02:00:13.665Z,96654
2017-11-15T02:02:48.601Z,96651
2017-11-15T02:05:17.277Z,96656
2017-11-15T02:07:52.192Z,96656
2017-11-15T02:10:20.907Z,96652
2017-11-15T02:12:49.589Z,96651
2017-11-15T02:15:18.273Z,96645
2017-11-15T02:17:47.810Z,96641
2017-11-15T02:20:17.296Z,96651
2017-11-15T02:22:45.969Z,96653
2017-11-15T02:25:14.660Z,96649
2017-11-15T02:27:43.381Z,96650
2017-11-15T02:30:13.063Z,96642
2017-11-15T02:32:42.517Z,96646
2017-11-15T02:35:17.439Z,96641
2017-11-15T02:37:52.395Z,96658
2017-11-15T02:40:21.490Z,96657
2017-11-15T02:42:50.205Z,96649
2017-11-15T02:45:18.929Z,96655
2017-11-15T02:47:59.803Z,96652
2017-11-15T02:50:28.490Z,96658
2017-11-15T02:52:57.190Z,96647
2017-11-15T02:55:32.551Z,96642
2017-11-15T02:58:01.228Z,96643
2017-11-15T03:00:30.841Z,96644
2017-11-15T03:02:59.524Z,96641
2017-11-15T03:05:28.204Z,96633
2017-11-15T03:07:56.924Z,96644
2017-11-15T03:10:25.601Z,96645
2017-11-15T03:12:54.308Z,96653
2017-11-15T03:15:27.019Z,96655
2017-11-15T03:18:01.868Z,96654
2017-11-15T03:20:31.381Z,96644
2017-11-15T03:23:05.893Z,96647
2017-11-15T03:25:34.566Z,96647
2017-11-15T03:28:03.244Z,96652
2017-11-15T03:30:31.931Z,96649
2017-11-15T03:33:01.125Z,96651
2017-11-15T03:35:29.804Z,96653
2017-11-15T03:37:58.592Z,96647
2017-11-15T03:40:28.025Z,96650
2017-11-15T03:42:57.596Z,96640
2017-11-15T03:45:26.276Z,96640
2017-11-15T03:47:55.716Z,96629
2017-11-15T03:50:30.994Z,96644
2017-11-15T03:53:00.480Z,96641
2017-11-15T03:55:30.571Z,96639
2017-11-15T03:57:59.233Z,96637
2017-11-15T04:00:27.930Z,96638
2017-11-15T04:02:56.609Z,96633
2017-11-15T04:05:31.424Z,96636
2017-11-15T04:08:00.865Z,96629
2017-11-15T04:10:29.541Z,96633
2017-11-15T04:12:58.219Z,96634
2017-11-15T04:15:33.793Z,96623
2017-11-15T04:18:02.479Z,96629
2017-11-15T04:20:31.187Z,96627
2017-11-15T04:22:59.870Z,96620
2017-11-15T04:25:28.550Z,96624
2017-11-15T04:28:03.363Z,96621
2017-11-15T04:30:32.041Z,96624
2017-11-15T04:33:00.737Z,96616
2017-11-15T04:35:29.432Z,96621
2017-11-15T04:38:01.841Z,96617
2017-11-15T04:40:31.292Z,96617
2017-11-15T04:42:59.968Z,96619
2017-11-15T04:45:28.661Z,96621
2017-11-15T04:47:57.464Z,96630
2017-11-15T04:50:32.403Z,96641
2017-11-15T04:53:01.085Z,96626
2017-11-15T04:55:29.810Z,96633
2017-11-15T04:57:59.260Z,96634
2017-11-15T05:00:27.963Z,96641
2017-11-15T05:02:56.652Z,96643
2017-11-15T05:05:25.336Z,96641
2017-11-15T05:07:55.496Z,96640
2017-11-15T05:10:24.950Z,96653
2017-11-15T05:12:53.648Z,96653
2017-11-15T05:15:22.329Z,96653
2017-11-15T05:17:51.004Z,96646
2017-11-15T05:20:24.563Z,96647
2017-11-15T05:22:54.120Z,96651
2017-11-15T05:25:29.096Z,96662
2017-11-15T05:27:58.560Z,96663
2017-11-15T05:30:27.260Z,96668
2017-11-15T05:32:55.949Z,96664
2017-11-15T05:35:30.817Z,96669
2017-11-15T05:38:03.020Z,96671
2017-11-15T05:40:32.636Z,96666
2017-11-15T05:43:02.296Z,96665
2017-11-15T05:45:33.781Z,96668
2017-11-15T05:48:02.467Z,96656
2017-11-15T05:50:31.153Z,96664
2017-11-15T05:52:59.836Z,96666
2017-11-15T05:55:34.831Z,96665
2017-11-15T05:58:07.163Z,96665
2017-11-15T06:00:35.854Z,96657
2017-11-15T06:03:04.532Z,96658
2017-11-15T06:05:46.807Z,96665
2017-11-15T06:08:15.496Z,96656
2017-11-15T06:10:46.935Z,96666
2017-11-15T06:13:15.631Z,96668
2017-11-15T06:15:50.373Z,96671
2017-11-15T06:18:19.066Z,96669
2017-11-15T06:20:47.785Z,96685
2017-11-15T06:23:16.438Z,96662
2017-11-15T06:25:46.058Z,96676
2017-11-15T06:28:14.666Z,96677
2017-11-15T06:30:44.169Z,96678
2017-11-15T06:33:13.811Z,96675
2017-11-15T06:35:42.516Z,96681
2017-11-15T06:38:11.193Z,96679
2017-11-15T06:40:39.869Z,96687
2017-11-15T06:43:08.561Z,96692
2017-11-15T06:45:43.405Z,96699
2017-11-15T06:48:12.148Z,96701
2017-11-15T06:50:41.152Z,96700
2017-11-15T06:53:17.051Z,96706
2017-11-15T06:55:45.729Z,96705
2017-11-15T06:58:14.414Z,96735
2017-11-15T07:00:43.105Z,96702
2017-11-15T07:03:11.801Z,96700
2017-11-15T07:05:40.524Z,96695
2017-11-15T07:08:09.201Z,96701
2017-11-15T07:10:37.896Z,96698
2017-11-15T07:13:12.679Z,96703
2017-11-15T07:15:41.602Z,96704
2017-11-15T07:18:13.606Z,96708
2017-11-15T07:20:42.508Z,96703
2017-11-15T07:23:11.204Z,96701
2017-11-15T07:25:39.884Z,96708
2017-11-15T07:28:08.577Z,96707
2017-11-15T07:30:38.132Z,96715
2017-11-15T07:33:08.855Z,96728
2017-11-15T07:35:38.302Z,96716
2017-11-15T07:38:06.997Z,96711
2017-11-15T07:40:41.770Z,96719
2017-11-15T07:43:11.264Z,96718
2017-11-15T07:45:40.712Z,96720
2017-11-15T07:48:16.380Z,96719
2017-11-15T07:50:45.071Z,96726
2017-11-15T07:53:13.730Z,96724
2017-11-15T07:55:42.449Z,96731
2017-11-15T07:58:17.364Z,96722
2017-11-15T08:00:52.322Z,96723
2017-11-15T08:03:21.020Z,96716
2017-11-15T08:05:55.940Z,96727
2017-11-15T08:08:24.609Z,96721
2017-11-15T08:11:01.893Z,96767
2017-11-15T08:13:32.190Z,96727
2017-11-15T08:16:00.916Z,96722
2017-11-15T08:18:35.735Z,96724
2017-11-15T08:21:04.430Z,96725
2017-11-15T08:23:33.157Z,96723
2017-11-15T08:26:01.903Z,96727
2017-11-15T08:28:30.590Z,96728
2017-11-15T08:30:59.269Z,96757
2017-11-15T08:33:27.981Z,96729
2017-11-15T08:36:03.586Z,96728
2017-11-15T08:38:32.276Z,96734
2017-11-15T08:41:00.961Z,96730
2017-11-15T08:43:29.648Z,96729
2017-11-15T08:45:58.360Z,96732
2017-11-15T08:48:27.074Z,96736
2017-11-15T08:50:57.612Z,96742
2017-11-15T08:53:26.328Z,96732
2017-11-15T08:56:01.286Z,96740
2017-11-15T08:58:30.049Z,96745
2017-11-15T09:00:58.742Z,96734
2017-11-15T09:03:27.474Z,96733
2017-11-15T09:05:56.928Z,96730
2017-11-15T09:08:25.605Z,96721
2017-11-15T09:11:00.578Z,96733
2017-11-15T09:13:35.616Z,96720
2017-11-15T09:16:10.438Z,96723
2017-11-15T09:18:46.409Z,96719
2017-11-15T09:21:15.865Z,96705
2017-11-15T09:23:50.724Z,96707
2017-11-15T09:26:19.412Z,96701
2017-11-15T09:28:48.100Z,96717
2017-11-15T09:31:16.834Z,96711
2017-11-15T09:33:51.681Z,96705
2017-11-15T09:36:26.639Z,96701
2017-11-15T09:38:55.357Z,96700
2017-11-15T09:41:43.308Z,96703
2017-11-15T09:44:18.985Z,96698
2017-11-15T09:46:47.681Z,96710
2017-11-15T09:49:16.361Z,96703
2017-11-15T09:51:51.417Z,96700
2017-11-15T09:54:21.988Z,96705
2017-11-15T09:56:56.939Z,96704
2017-11-15T09:59:25.673Z,96702
2017-11-15T10:01:54.345Z,96704
2017-11-15T10:04:29.225Z,96701
2017-11-15T10:06:58.763Z,96701
2017-11-15T10:09:27.440Z,96692
2017-11-15T10:12:02.345Z,96691
2017-11-15T10:14:37.298Z,96694
2017-11-15T10:17:13.053Z,96689
2017-11-15T10:19:48.004Z,96686
2017-11-15T10:22:23.644Z,96681
2017-11-15T10:24:59.469Z,96669
2017-11-15T10:27:34.439Z,96677
2017-11-15T10:30:03.195Z,96674
2017-11-15T10:32:38.055Z,96669
2017-11-15T10:35:06.750Z,96695
2017-11-15T10:37:42.400Z,96673
2017-11-15T10:40:11.198Z,96673
2017-11-15T10:42:39.842Z,96663
2017-11-15T10:45:15.513Z,96672
2017-11-15T10:47:46.115Z,96670
2017-11-15T10:50:14.816Z,96664
2017-11-15T10:52:43.508Z,96665
2017-11-15T10:55:12.209Z,96665
2017-11-15T10:57:47.152Z,96668
2017-11-15T11:00:15.858Z,96661
2017-11-15T11:02:44.586Z,96665
2017-11-15T11:05:19.396Z,96662
2017-11-15T11:07:52.103Z,96650
2017-11-15T11:10:26.912Z,96651
2017-11-15T11:12:55.675Z,96647
2017-11-15T11:15:24.506Z,96649
2017-11-15T11:17:53.189Z,96647
2017-11-15T11:20:28.128Z,96644
2017-11-15T11:23:03.176Z,96641
2017-11-15T11:25:31.872Z,96645
2017-11-15T11:28:00.565Z,96654
2017-11-15T11:30:30.029Z,96649
2017-11-15T11:32:58.733Z,96642
2017-11-15T11:35:27.439Z,96645
2017-11-15T11:37:56.129Z,96637
2017-11-15T11:40:24.821Z,96642
2017-11-15T11:42:59.771Z,96639
2017-11-15T11:45:28.485Z,96639
2017-11-15T11:47:57.174Z,96645
2017-11-15T11:50:26.726Z,96633
2017-11-15T11:52:56.208Z,96630
2017-11-15T11:55:24.910Z,96632
2017-11-15T11:57:53.638Z,96623
2017-11-15T12:00:28.592Z,96620
2017-11-15T12:03:03.559Z,96612
2017-11-15T12:05:38.373Z,96604
2017-11-15T12:08:07.101Z,96606
2017-11-15T12:10:35.800Z,96606
2017-11-15T12:13:04.499Z,96593
2017-11-15T12:15:39.432Z,96598
2017-11-15T12:18:08.956Z,96583
2017-11-15T12:20:37.652Z,96587
2017-11-15T12:23:12.552Z,96576
2017-11-15T12:25:41.471Z,96578
2017-11-15T12:28:10.160Z,96573
2017-11-15T12:30:39.496Z,96600
2017-11-15T12:33:09.889Z,96550
2017-11-15T12:35:38.580Z,96569
2017-11-15T12:38:13.508Z,96550
2017-11-15T12:40:43.078Z,96536
2017-11-15T12:43:11.901Z,96533
2017-11-15T12:45:46.815Z,96528
2017-11-15T12:48:16.541Z,96526
2017-11-15T12:50:45.317Z,96518
2017-11-15T12:53:15.107Z,96518
2017-11-15T12:55:50.093Z,96510
2017-11-15T12:58:19.057Z,96515
2017-11-15T13:00:47.792Z,96521
2017-11-15T13:03:17.636Z,96520
2017-11-15T13:05:46.391Z,96526
2017-11-15T13:08:15.959Z,96527
2017-11-15T13:10:46.621Z,96520
2017-11-15T13:13:15.887Z,96526
2017-11-15T13:15:50.742Z,96536
2017-11-15T13:18:19.697Z,96570
2017-11-15T13:20:49.241Z,96525
2017-11-15T13:23:17.895Z,96527
2017-11-15T13:25:53.467Z,96531
2017-11-15T13:28:22.147Z,96527
2017-11-15T13:30:50.845Z,96528
2017-11-15T13:33:25.642Z,96524
2017-11-15T13:36:00.513Z,96527
2017-11-15T13:38:35.524Z,96528
2017-11-15T13:41:07.302Z,96527
2017-11-15T13:43:36.775Z,96530
2017-11-15T13:46:11.740Z,96525
2017-11-15T13:48:46.640Z,96523
2017-11-15T13:51:21.565Z,96525
2017-11-15T13:53:50.276Z,96585
2017-11-15T13:56:18.972Z,96526
2017-11-15T13:58:48.760Z,96527
2017-11-15T14:01:18.244Z,96536
2017-11-15T14:03:47.760Z,96530
2017-11-15T14:06:21.175Z,96535
2017-11-15T14:08:50.694Z,96536
2017-11-15T14:11:21.085Z,96535
2017-11-15T14:13:49.781Z,96545
2017-11-15T14:16:24.759Z,96537
2017-11-15T14:18:53.454Z,96535
2017-11-15T14:21:29.042Z,96551
2017-11-15T14:24:04.044Z,96544
2017-11-15T14:26:32.828Z,96554
2017-11-15T14:29:08.400Z,96548
2017-11-15T14:31:37.113Z,96560
2017-11-15T14:34:06.571Z,96547
2017-11-15T14:36:42.233Z,96553
2017-11-15T14:39:17.162Z,96538
2017-11-15T14:41:45.860Z,96553
2017-11-15T14:44:20.779Z,96550
2017-11-15T14:46:49.456Z,96548
2017-11-15T14:49:21.244Z,96563
2017-11-15T14:51:49.957Z,96560
2017-11-15T14:54:24.979Z,96550
2017-11-15T14:56:59.922Z,96550
2017-11-15T14:59:34.952Z,96555
2017-11-15T15:02:04.399Z,96552
2017-11-15T15:04:34.129Z,96557
2017-11-15T15:07:02.819Z,96557
2017-11-15T15:09:37.611Z,96546
2017-11-15T15:12:12.562Z,96551
2017-11-15T15:14:41.239Z,96550
2017-11-15T15:17:09.942Z,96552
2017-11-15T15:19:44.887Z,96542
2017-11-15T15:22:19.786Z,96540
2017-11-15T15:24:49.456Z,96554
2017-11-15T15:27:24.395Z,96546
2017-11-15T15:29:53.097Z,96560
2017-11-15T15:32:22.540Z,96546
2017-11-15T15:34:51.214Z,96555
2017-11-15T15:37:19.896Z,96554
2017-11-15T15:39:54.700Z,96553
2017-11-15T15:42:23.400Z,96553
2017-11-15T15:44:52.072Z,96557
2017-11-15T15:47:20.747Z,96560
2017-11-15T15:49:56.345Z,96562
2017-11-15T15:52:25.050Z,96570
2017-11-15T15:54:59.843Z,96579
2017-11-15T15:57:28.516Z,96572
2017-11-15T15:59:59.068Z,96583
2017-11-15T16:02:27.753Z,96577
2017-11-15T16:05:02.684Z,96584
2017-11-15T16:07:37.597Z,96577
2017-11-15T16:10:12.449Z,96578
2017-11-15T16:12:42.027Z,96580
2017-11-15T16:15:10.712Z,96578
2017-11-15T16:17:45.498Z,96579
2017-11-15T16:20:20.484Z,96576
2017-11-15T16:22:55.299Z,96582
2017-11-15T16:25:23.988Z,96569
2017-11-15T16:27:52.664Z,96567
2017-11-15T16:30:28.573Z,96567
2017-11-15T16:33:03.624Z,96576
2017-11-15T16:35:33.302Z,96578
2017-11-15T16:38:02.406Z,96573
2017-11-15T16:40:31.448Z,96573
2017-11-15T16:43:00.141Z,96566
2017-11-15T16:45:35.064Z,96569
2017-11-15T16:48:04.093Z,96567
2017-11-15T16:50:33.615Z,96564
2017-11-15T16:53:08.572Z,96568
2017-11-15T16:55:38.067Z,96566
2017-11-15T16:58:07.638Z,96560
2017-11-15T17:00:36.308Z,96563
2017-11-15T17:03:07.807Z,96570
2017-11-15T17:05:42.592Z,96572
2017-11-15T17:08:11.289Z,96583
2017-11-15T17:10:43.965Z,96568
2017-11-15T17:13:12.666Z,96570
2017-11-15T17:15:42.319Z,96570
2017-11-15T17:18:11.777Z,96572
2017-11-15T17:20:43.553Z,96576
2017-11-15T17:23:12.471Z,96580
2017-11-15T17:25:47.231Z,96582
2017-11-15T17:28:22.198Z,96581
2017-11-15T17:30:50.875Z,96586
2017-11-15T17:33:21.535Z,96582
2017-11-15T17:35:50.216Z,96581
2017-11-15T17:38:18.893Z,96579
2017-11-15T17:40:47.584Z,96580
2017-11-15T17:43:22.500Z,96584
2017-11-15T17:45:51.287Z,96578
2017-11-15T17:48:20.603Z,96581
2017-11-15T17:50:49.341Z,96591
2017-11-15T17:53:18.050Z,96586
2017-11-15T17:55:46.765Z,96587
2017-11-15T17:58:15.450Z,96593
2017-11-15T18:00:44.133Z,96593
2017-11-15T18:03:12.816Z,96598
2017-11-15T18:05:45.536Z,96602
2017-11-15T18:08:14.362Z,96595
2017-11-15T18:10:43.458Z,96595
2017-11-15T18:13:18.428Z,96589
2017-11-15T18:15:53.515Z,96613
2017-11-15T18:18:22.202Z,96586
2017-11-15T18:20:59.193Z,96592
2017-11-15T18:23:34.038Z,96596
2017-11-15T18:26:02.704Z,96586
2017-11-15T18:28:37.650Z,96588
2017-11-15T18:31:06.341Z,96597
2017-11-15T18:33:36.002Z,96608
2017-11-15T18:36:11.576Z,96594
2017-11-15T18:38:40.256Z,96593
2017-11-15T18:41:08.964Z,96591
2017-11-15T18:43:39.597Z,96610
2017-11-15T18:46:09.901Z,96588
2017-11-15T18:48:45.634Z,96582
2017-11-15T18:51:20.661Z,96570
2017-11-15T18:53:50.082Z,96574
2017-11-15T18:56:18.771Z,96576
2017-11-15T18:58:47.482Z,96579
2017-11-15T19:01:16.579Z,96587
2017-11-15T19:03:51.481Z,96574
2017-11-15T19:06:21.935Z,96581
2017-11-15T19:08:57.549Z,96583
2017-11-15T19:11:26.264Z,96584
2017-11-15T19:13:54.953Z,96577
2017-11-15T19:16:23.636Z,96573
2017-11-15T19:18:58.605Z,96630
2017-11-15T19:21:28.072Z,96576
2017-11-15T19:23:56.926Z,96574
2017-11-15T19:26:25.783Z,96572
2017-11-15T19:29:01.309Z,96570
2017-11-15T19:31:29.997Z,96115
2017-11-15T19:34:05.628Z,96574
2017-11-15T19:36:40.585Z,96575
2017-11-15T19:39:10.076Z,96574
2017-11-15T19:41:38.756Z,96565
2017-11-15T19:44:13.680Z,96560
2017-11-15T19:46:42.360Z,96556
2017-11-15T19:49:11.057Z,96560
2017-11-15T19:51:39.756Z,96557
2017-11-15T19:54:08.441Z,96560
2017-11-15T19:56:37.133Z,96552
2017-11-15T19:59:12.856Z,96553
2017-11-15T20:01:48.591Z,96559
2017-11-15T20:04:17.525Z,96560
2017-11-15T20:06:52.279Z,96561
2017-11-15T20:09:27.177Z,96591
2017-11-15T20:11:55.892Z,96555
2017-11-15T20:14:24.669Z,96561
2017-11-15T20:16:54.141Z,96566
2017-11-15T20:19:22.838Z,96556
2017-11-15T20:21:57.847Z,96590
2017-11-15T20:24:26.503Z,96561
2017-11-15T20:26:55.213Z,96556
2017-11-15T20:29:30.156Z,96553
2017-11-15T20:31:58.843Z,96558
2017-11-15T20:34:27.526Z,96552
2017-11-15T20:36:57.124Z,96550
2017-11-15T20:39:25.828Z,96540
2017-11-15T20:41:54.524Z,96553
2017-11-15T20:44:24.193Z,96553
2017-11-15T20:46:54.868Z,96554
2017-11-15T20:49:30.484Z,96548
2017-11-15T20:52:05.277Z,96458
2017-11-15T20:54:40.867Z,96537
2017-11-15T20:57:09.590Z,96544
2017-11-15T20:59:39.136Z,96537
2017-11-15T21:02:13.949Z,96541
2017-11-15T21:04:49.549Z,96544
2017-11-15T21:07:18.245Z,96540
2017-11-15T21:09:46.929Z,96540
2017-11-15T21:12:15.663Z,96534
2017-11-15T21:14:44.336Z,96539
2017-11-15T21:17:19.323Z,96531
2017-11-15T21:19:54.270Z,96528
2017-11-15T21:22:29.245Z,96533
2017-11-15T21:24:57.930Z,96524
2017-11-15T21:27:33.500Z,96526
2017-11-15T21:30:03.130Z,96523
2017-11-15T21:32:39.092Z,96537
2017-11-15T21:35:07.800Z,96559
2017-11-15T21:37:36.482Z,96527
2017-11-15T21:40:11.293Z,96524
2017-11-15T21:42:40.853Z,96519
2017-11-15T21:45:11.137Z,96525
2017-11-15T21:47:46.654Z,96521
2017-11-15T21:50:15.592Z,96523
2017-11-15T21:52:50.560Z,96519
2017-11-15T21:55:24.986Z,96516
2017-11-15T21:57:53.679Z,96501
2017-11-15T22:00:28.724Z,96495
2017-11-15T22:03:04.459Z,96497
2017-11-15T22:05:33.929Z,96497
2017-11-15T22:08:02.917Z,96497
2017-11-15T22:10:31.592Z,96490
2017-11-15T22:13:00.446Z,96497
2017-11-15T22:15:30.229Z,96500
2017-11-15T22:17:58.909Z,96498
2017-11-15T22:20:33.835Z,96492
2017-11-15T22:23:02.530Z,96493
2017-11-15T22:25:31.217Z,96491
2017-11-15T22:28:05.986Z,96488
2017-11-15T22:30:40.768Z,96489
2017-11-15T22:33:09.479Z,96494
2017-11-15T22:35:38.152Z,96498
2017-11-15T22:38:06.821Z,96487
2017-11-15T22:40:35.509Z,96479
2017-11-15T22:43:10.448Z,96483
2017-11-15T22:45:39.138Z,96484
2017-11-15T22:48:07.814Z,96480
2017-11-15T22:50:42.721Z,96483
2017-11-15T22:53:11.400Z,96490
2017-11-15T22:55:46.238Z,96484
2017-11-15T22:58:14.924Z,96490
2017-11-15T23:00:49.721Z,96483
2017-11-15T23:03:18.406Z,96479
2017-11-15T23:05:48.132Z,96472
2017-11-15T23:08:17.578Z,96483
2017-11-15T23:10:46.273Z,96480
2017-11-15T23:13:14.964Z,96474
2017-11-15T23:15:43.644Z,96470
2017-11-15T23:18:12.332Z,96468
2017-11-15T23:20:41.032Z,96464
2017-11-15T23:23:09.764Z,96474
2017-11-15T23:25:38.437Z,96461
2017-11-15T23:28:13.343Z,96459
2017-11-15T23:30:42.023Z,96454
2017-11-15T23:33:10.706Z,96466
2017-11-15T23:35:39.384Z,96467
2017-11-15T23:38:09.922Z,96461
2017-11-15T23:40:38.607Z,96459
2017-11-15T23:43:07.293Z,96452
2017-11-15T23:45:35.977Z,96452
2017-11-15T23:48:10.904Z,96458
2017-11-15T23:50:39.659Z,96448
2017-11-15T23:53:10.289Z,96449
2017-11-15T23:55:40.517Z,96453
2017-11-15T23:58:09.189Z,96437
